Audubon, IA (50025)

3:04 AM CDT on August 31, 2015 (GMT -0500)
Herbers Seed | | Change Station
CLOSE
Current Station
Personal Weather Station
Location: Audubon, IA
Elevation: 1385 ft
Nearby Weather Stations

Elev 1385 ft 41.73 °N, 94.94 °W | Updated 7 minutes ago

Overcast
Overcast
64.7 °F
Feels Like 64.7 °F
N
0.0
Wind Variable Wind from East

Today
High -- | Low -- °F
--% Chance of Precip.
Yesterday
High -- | Low -- °F
Precip. -- in
6:44 AM 7:54 PM
Waning Gibbous, 96% visible
Pressure 29.99 in
Visibility 2.5 miles
Clouds Scattered Clouds 100 ft
Overcast 3200 ft
Dew Point 64 °F
Humidity 98%
Rainfall 0.00 in
Snow Depth Not available.
UV 0 out of 12
Pollen 10.10 out of 12
Air Quality Not available.
Flu Activity Not available.
METAR KADU 310715Z AUTO 00000KT 2 1/2SM BR SCT001 OVC032 15/14 A2999 RMK AO2
Pressure 29.99 in
Visibility 2.5 miles
Clouds Scattered Clouds 100 ft
Overcast 3200 ft
Dew Point 64 °F
Humidity 98%
Rainfall 0.00 in
Snow Depth Not available.
UV 0 out of 12
Pollen 10.10 out of 12
Air Quality Not available.
Flu Activity Not available.
METAR KADU 310715Z AUTO 00000KT 2 1/2SM BR SCT001 OVC032 15/14 A2999 RMK AO2

10-Day Weather Forecast

×

Almanac

Astronomy

Aug. 31, 2015 Rise Set
Actual Time
Civil Twilight
Nautical Twilight
Astronomical Twilight
Moon
Length of Visible Light
Length of Day
Tomorrow will be .
, % of the Moon is Illuminated

Today's Extremes

State Highs State Lows

Community

WunderPhotos

Upload Photos

1,851,220 photos uploaded!

WunderBlogs® & News

Nearby

Air Quality

  Air Quality AQ Index Pollutant
Not available.

Snow Depth

Station Depth Elevation

Earthquake Activity

City Distance Mag. Time & Date
Minimum magnitude displayed is 2.5.

Coastal Water Temperatures

Place Temperature

Stations

Nearby Weather Stations

Station Location Temp. Windchill Dew Point Humidity Wind Precip. Elev Updated Type